Portada
METAR-TAF:

METAR-TAF

Aeroports :

Kinshasa, Congo

latitud: 04-23S, longitud: 015-26E, altitud: 309 m

Observació

L'informe es va fer fa 1 hora i 47 minuts, a les 21:00 UTC
Vent 4 kt del Oest
Temperatura 23°C
Humitat 78%
Pressió 1016 hPa
Visibilitat: 6000 m
Cel ennuvolat a una alçada de 1600 ft

METAR: FZAA 152100Z 27004KT 6000 BKN016 23/19 Q1016 NOSIG

Hora: 23:47 (22:47 UTC)

Pronòstic

L'informe es va fer fa 5 hores i 47 minuts, a les 17:00 UTC
Pronòstic vàlid del 15 a les 18 UTC al 16 a les 24 UTC
Vent 4 kt del Sud-Oest
Visibilitat: 6000 m
Núvols disperses a una alçada de 1800 ft
Evolucionant progressivament
l' 16 a les 03 UTC al 16 a les 05 UTC
Visibilitat: 3000 m
Cel ennuvolat a una alçada de 1400 ft
boirina
Evolucionant progressivament
l' 16 a les 10 UTC al 16 a les 12 UTC
Vent 10 kt del Oest/Nord-Oest
Visibilitat: 6000 m
Núvols disperses a una alçada de 2000 ft

TAF: FZAA 151700Z 1518/1624 22004KT 6000 SCT018 BECMG 1603/1605 3000 BR BKN014 BECMG 1610/1612 30010KT 6000 NSW SCT020

Observacions i pronòstics meteorològics de més de 4000 aeroports (METAR i TAF).

Les estacions disponibles són els punts grocs i vermells al mapa.

Posi el ratolí al punt desitjat per veure el nom de l'estació.

Feu clic per veure les observacions i els pronòstics meteorològics.

Per canviar el mapa: feu clic els botons verds amb una creu de color negre per apropar; al botó verd amb un guió per allunyar la imatge; o en les fletxes verdes per a mapes adjacents.


METAR-TAF: